LYBE/BEG METAR and TAF weather

Enter ICAO airport designator
Station Type Date Time Source
LYBE METAR 2017/03/23 17:30 UTC NOAA

LYBE 231730Z 06004KT CAVOK 20/08 Q1017 NOSIG


Station Type Date Time Source
LYBE Decoded METAR 2017/03/23 17:30 UTC NOAA

Beograd / Surcin, Serbia and Montenegro (LYBE) 44-49N 020-17E 99M
Mar 23, 2017 - 01:30 PM EDT / 2017.03.23 1730 UTC
Wind: from the ENE (060 degrees) at 5 MPH (4 KT):0
Visibility: greater than 7 mile(s):0
Temperature: 68 F (20 C)
Dew Point: 46 F (8 C)
Relative Humidity: 45%
Pressure (altimeter): 30.03 in. Hg (1017 hPa)
ob: LYBE 231730Z 06004KT CAVOK 20/08 Q1017 NOSIG
cycle: 17

Station Type Date Time Source
LYBE TAF 2017/03/23 18:24 UTC NOAA

TAF TAF LYBE 231700Z 2318/2418 13008KT CAVOK TX23/2413Z TN08/2405Z
BECMG 2410/2412 30010KT


Example: see airport list